sensor_id;sensor_type;location;lat;lon;timestamp;temperature;humidity
11577;DHT22;5844;51.496;6.788;2023-07-29T00:01:20;18.50;1.00
11577;DHT22;5844;51.496;6.788;2023-07-29T00:03:46;18.40;1.00
11577;DHT22;5844;51.496;6.788;2023-07-29T00:06:12;18.40;1.00
11577;DHT22;5844;51.496;6.788;2023-07-29T00:08:37;18.30;1.00
11577;DHT22;5844;51.496;6.788;2023-07-29T00:11:03;18.40;1.00
11577;DHT22;5844;51.496;6.788;2023-07-29T00:13:28;18.40;1.00
11577;DHT22;5844;51.496;6.788;2023-07-29T00:15:55;18.40;1.00
11577;DHT22;5844;51.496;6.788;2023-07-29T00:18:22;18.50;1.00
11577;DHT22;5844;51.496;6.788;2023-07-29T00:20:49;18.60;1.00
11577;DHT22;5844;51.496;6.788;2023-07-29T00:23:16;18.60;1.00
11577;DHT22;5844;51.496;6.788;2023-07-29T00:25:44;18.60;1.00
11577;DHT22;5844;51.496;6.788;2023-07-29T00:28:11;18.60;1.00
11577;DHT22;5844;51.496;6.788;2023-07-29T00:30:37;18.60;1.00
11577;DHT22;5844;51.496;6.788;2023-07-29T00:33:03;18.60;1.00
11577;DHT22;5844;51.496;6.788;2023-07-29T00:35:28;18.60;1.00
11577;DHT22;5844;51.496;6.788;2023-07-29T00:37:55;18.60;1.00
11577;DHT22;5844;51.496;6.788;2023-07-29T00:40:22;18.80;1.00
11577;DHT22;5844;51.496;6.788;2023-07-29T00:42:49;18.80;1.00
11577;DHT22;5844;51.496;6.788;2023-07-29T00:45:15;18.90;1.00
11577;DHT22;5844;51.496;6.788;2023-07-29T00:47:41;18.90;1.00
11577;DHT22;5844;51.496;6.788;2023-07-29T00:50:11;18.90;1.00
11577;DHT22;5844;51.496;6.788;2023-07-29T00:52:38;18.90;1.00
11577;DHT22;5844;51.496;6.788;2023-07-29T00:55:04;18.90;1.00
11577;DHT22;5844;51.496;6.788;2023-07-29T00:57:31;18.90;1.00
11577;DHT22;5844;51.496;6.788;2023-07-29T00:59:57;18.90;1.00
11577;DHT22;5844;51.496;6.788;2023-07-29T01:02:23;18.90;1.00
11577;DHT22;5844;51.496;6.788;2023-07-29T01:04:57;18.90;1.00
11577;DHT22;5844;51.496;6.788;2023-07-29T01:07:47;19.10;1.00
11577;DHT22;5844;51.496;6.788;2023-07-29T01:10:26;19.10;1.00
11577;DHT22;5844;51.496;6.788;2023-07-29T01:13:17;19.10;1.00
11577;DHT22;5844;51.496;6.788;2023-07-29T01:16:00;19.10;1.00
11577;DHT22;5844;51.496;6.788;2023-07-29T01:18:31;19.10;1.00
11577;DHT22;5844;51.496;6.788;2023-07-29T01:21:00;19.20;1.00
11577;DHT22;5844;51.496;6.788;2023-07-29T01:23:31;19.30;1.00
11577;DHT22;5844;51.496;6.788;2023-07-29T01:25:57;19.30;1.00
11577;DHT22;5844;51.496;6.788;2023-07-29T01:28:24;19.30;1.00
11577;DHT22;5844;51.496;6.788;2023-07-29T01:30:57;19.30;1.00
11577;DHT22;5844;51.496;6.788;2023-07-29T01:33:32;19.30;1.00
11577;DHT22;5844;51.496;6.788;2023-07-29T01:36:22;19.30;1.00
11577;DHT22;5844;51.496;6.788;2023-07-29T01:38:51;19.30;1.00
11577;DHT22;5844;51.496;6.788;2023-07-29T01:41:19;19.30;1.00
11577;DHT22;5844;51.496;6.788;2023-07-29T01:43:46;19.30;1.00
11577;DHT22;5844;51.496;6.788;2023-07-29T01:46:13;19.30;1.00
11577;DHT22;5844;51.496;6.788;2023-07-29T01:48:39;19.20;1.00
11577;DHT22;5844;51.496;6.788;2023-07-29T01:51:05;19.30;1.00
11577;DHT22;5844;51.496;6.788;2023-07-29T01:53:31;19.30;1.00
11577;DHT22;5844;51.496;6.788;2023-07-29T01:55:57;19.40;1.00
11577;DHT22;5844;51.496;6.788;2023-07-29T01:58:23;19.40;1.00
11577;DHT22;5844;51.496;6.788;2023-07-29T02:00:49;19.40;1.00
11577;DHT22;5844;51.496;6.788;2023-07-29T02:03:14;19.40;1.00
11577;DHT22;5844;51.496;6.788;2023-07-29T02:05:40;19.30;1.00
11577;DHT22;5844;51.496;6.788;2023-07-29T02:08:07;19.40;1.00
11577;DHT22;5844;51.496;6.788;2023-07-29T02:10:33;19.40;1.00
11577;DHT22;5844;51.496;6.788;2023-07-29T02:12:58;19.40;1.00
11577;DHT22;5844;51.496;6.788;2023-07-29T02:15:24;19.40;1.00
11577;DHT22;5844;51.496;6.788;2023-07-29T02:17:50;19.40;1.00
11577;DHT22;5844;51.496;6.788;2023-07-29T02:20:17;19.40;1.00
11577;DHT22;5844;51.496;6.788;2023-07-29T02:22:42;19.40;1.00
11577;DHT22;5844;51.496;6.788;2023-07-29T02:25:08;19.40;1.00
11577;DHT22;5844;51.496;6.788;2023-07-29T02:27:35;19.40;1.00
11577;DHT22;5844;51.496;6.788;2023-07-29T02:30:01;19.40;1.00
11577;DHT22;5844;51.496;6.788;2023-07-29T02:32:27;19.40;1.00
11577;DHT22;5844;51.496;6.788;2023-07-29T02:34:53;19.50;1.00
11577;DHT22;5844;51.496;6.788;2023-07-29T02:37:18;19.50;1.00
11577;DHT22;5844;51.496;6.788;2023-07-29T02:39:44;19.50;1.00
11577;DHT22;5844;51.496;6.788;2023-07-29T02:42:10;19.50;1.00
11577;DHT22;5844;51.496;6.788;2023-07-29T02:44:35;19.50;1.00
11577;DHT22;5844;51.496;6.788;2023-07-29T02:47:01;19.40;1.00
11577;DHT22;5844;51.496;6.788;2023-07-29T02:49:27;19.40;1.00
11577;DHT22;5844;51.496;6.788;2023-07-29T02:51:53;19.40;1.00
11577;DHT22;5844;51.496;6.788;2023-07-29T02:54:18;19.50;1.00
11577;DHT22;5844;51.496;6.788;2023-07-29T02:56:44;19.40;1.00
11577;DHT22;5844;51.496;6.788;2023-07-29T02:59:09;19.40;1.00
11577;DHT22;5844;51.496;6.788;2023-07-29T03:01:35;19.50;1.00
11577;DHT22;5844;51.496;6.788;2023-07-29T03:04:01;19.50;1.00
11577;DHT22;5844;51.496;6.788;2023-07-29T03:06:26;19.40;1.00
11577;DHT22;5844;51.496;6.788;2023-07-29T03:08:52;19.50;1.00
11577;DHT22;5844;51.496;6.788;2023-07-29T03:11:18;19.60;1.00
11577;DHT22;5844;51.496;6.788;2023-07-29T03:13:43;19.60;1.00
11577;DHT22;5844;51.496;6.788;2023-07-29T03:16:11;19.60;1.00
11577;DHT22;5844;51.496;6.788;2023-07-29T03:18:37;19.60;1.00
11577;DHT22;5844;51.496;6.788;2023-07-29T03:21:04;19.60;1.00
11577;DHT22;5844;51.496;6.788;2023-07-29T03:23:30;19.60;1.00
11577;DHT22;5844;51.496;6.788;2023-07-29T03:25:56;19.60;1.00
11577;DHT22;5844;51.496;6.788;2023-07-29T03:28:28;19.60;1.00
11577;DHT22;5844;51.496;6.788;2023-07-29T03:30:55;19.60;1.00
11577;DHT22;5844;51.496;6.788;2023-07-29T03:33:21;19.60;1.00
11577;DHT22;5844;51.496;6.788;2023-07-29T03:35:46;19.60;1.00
11577;DHT22;5844;51.496;6.788;2023-07-29T03:38:13;19.60;1.00
11577;DHT22;5844;51.496;6.788;2023-07-29T03:40:39;19.50;1.00
11577;DHT22;5844;51.496;6.788;2023-07-29T03:43:05;19.40;1.00
11577;DHT22;5844;51.496;6.788;2023-07-29T03:45:31;19.30;1.00
11577;DHT22;5844;51.496;6.788;2023-07-29T03:47:57;19.20;1.00
11577;DHT22;5844;51.496;6.788;2023-07-29T03:50:23;19.10;1.00
11577;DHT22;5844;51.496;6.788;2023-07-29T03:52:49;19.10;1.00
11577;DHT22;5844;51.496;6.788;2023-07-29T03:55:15;19.10;1.00
11577;DHT22;5844;51.496;6.788;2023-07-29T03:57:42;18.90;1.00
11577;DHT22;5844;51.496;6.788;2023-07-29T04:00:08;18.80;1.00
11577;DHT22;5844;51.496;6.788;2023-07-29T04:02:34;18.80;1.00
11577;DHT22;5844;51.496;6.788;2023-07-29T04:05:03;18.80;1.00
11577;DHT22;5844;51.496;6.788;2023-07-29T04:07:29;18.70;1.00
11577;DHT22;5844;51.496;6.788;2023-07-29T04:09:55;18.70;1.00
11577;DHT22;5844;51.496;6.788;2023-07-29T04:12:22;18.60;1.00
11577;DHT22;5844;51.496;6.788;2023-07-29T04:14:48;18.60;1.00
11577;DHT22;5844;51.496;6.788;2023-07-29T04:17:13;18.60;1.00
11577;DHT22;5844;51.496;6.788;2023-07-29T04:19:39;18.50;1.00
11577;DHT22;5844;51.496;6.788;2023-07-29T04:22:05;18.50;1.00
11577;DHT22;5844;51.496;6.788;2023-07-29T04:24:30;18.50;1.00
11577;DHT22;5844;51.496;6.788;2023-07-29T04:26:56;18.50;1.00
11577;DHT22;5844;51.496;6.788;2023-07-29T04:29:22;18.50;1.00
11577;DHT22;5844;51.496;6.788;2023-07-29T04:31:49;18.50;1.00
11577;DHT22;5844;51.496;6.788;2023-07-29T04:34:15;18.50;1.00
11577;DHT22;5844;51.496;6.788;2023-07-29T04:36:40;18.50;1.00
11577;DHT22;5844;51.496;6.788;2023-07-29T04:39:06;18.50;1.00
11577;DHT22;5844;51.496;6.788;2023-07-29T04:41:32;18.50;1.00
11577;DHT22;5844;51.496;6.788;2023-07-29T04:43:57;18.50;1.00
11577;DHT22;5844;51.496;6.788;2023-07-29T04:46:23;18.50;1.00
11577;DHT22;5844;51.496;6.788;2023-07-29T04:48:48;18.50;1.00
11577;DHT22;5844;51.496;6.788;2023-07-29T04:51:14;18.40;1.00
11577;DHT22;5844;51.496;6.788;2023-07-29T04:53:40;18.40;1.00
11577;DHT22;5844;51.496;6.788;2023-07-29T04:56:05;18.40;1.00
11577;DHT22;5844;51.496;6.788;2023-07-29T04:58:31;18.40;1.00
11577;DHT22;5844;51.496;6.788;2023-07-29T05:01:00;18.40;1.00
11577;DHT22;5844;51.496;6.788;2023-07-29T05:03:26;18.30;1.00
11577;DHT22;5844;51.496;6.788;2023-07-29T05:05:51;18.30;1.00
11577;DHT22;5844;51.496;6.788;2023-07-29T05:08:19;18.40;1.00
11577;DHT22;5844;51.496;6.788;2023-07-29T05:10:48;18.40;1.00
11577;DHT22;5844;51.496;6.788;2023-07-29T05:13:13;18.50;1.00
11577;DHT22;5844;51.496;6.788;2023-07-29T05:15:39;18.50;1.00
11577;DHT22;5844;51.496;6.788;2023-07-29T05:18:05;18.60;1.00
11577;DHT22;5844;51.496;6.788;2023-07-29T05:20:30;18.60;1.00
11577;DHT22;5844;51.496;6.788;2023-07-29T05:22:56;18.60;1.00
11577;DHT22;5844;51.496;6.788;2023-07-29T05:25:21;18.60;1.00
11577;DHT22;5844;51.496;6.788;2023-07-29T05:27:47;18.60;1.00
11577;DHT22;5844;51.496;6.788;2023-07-29T05:30:13;18.60;1.00
11577;DHT22;5844;51.496;6.788;2023-07-29T05:32:38;18.60;1.00
11577;DHT22;5844;51.496;6.788;2023-07-29T05:35:04;18.70;1.00
11577;DHT22;5844;51.496;6.788;2023-07-29T05:37:30;18.70;1.00
11577;DHT22;5844;51.496;6.788;2023-07-29T05:39:55;18.70;1.00
11577;DHT22;5844;51.496;6.788;2023-07-29T05:42:21;18.70;1.00
11577;DHT22;5844;51.496;6.788;2023-07-29T05:44:47;18.80;1.00
11577;DHT22;5844;51.496;6.788;2023-07-29T05:47:12;18.80;1.00
11577;DHT22;5844;51.496;6.788;2023-07-29T05:49:38;18.90;1.00
11577;DHT22;5844;51.496;6.788;2023-07-29T05:52:04;18.90;1.00
11577;DHT22;5844;51.496;6.788;2023-07-29T05:54:29;18.90;1.00
11577;DHT22;5844;51.496;6.788;2023-07-29T05:56:55;18.90;1.00
11577;DHT22;5844;51.496;6.788;2023-07-29T05:59:20;18.90;1.00
11577;DHT22;5844;51.496;6.788;2023-07-29T06:01:46;18.90;1.00
11577;DHT22;5844;51.496;6.788;2023-07-29T06:04:12;18.90;1.00
11577;DHT22;5844;51.496;6.788;2023-07-29T06:06:37;18.90;1.00
11577;DHT22;5844;51.496;6.788;2023-07-29T06:09:03;18.80;1.00
11577;DHT22;5844;51.496;6.788;2023-07-29T06:11:29;18.90;1.00
11577;DHT22;5844;51.496;6.788;2023-07-29T06:13:54;18.90;1.00
11577;DHT22;5844;51.496;6.788;2023-07-29T06:16:20;19.00;1.00
11577;DHT22;5844;51.496;6.788;2023-07-29T06:18:45;19.00;1.00
11577;DHT22;5844;51.496;6.788;2023-07-29T06:21:11;19.10;1.00
11577;DHT22;5844;51.496;6.788;2023-07-29T06:23:42;19.10;1.00
11577;DHT22;5844;51.496;6.788;2023-07-29T06:26:08;19.20;1.00
11577;DHT22;5844;51.496;6.788;2023-07-29T06:28:34;19.10;1.00
11577;DHT22;5844;51.496;6.788;2023-07-29T06:31:00;19.20;1.00
11577;DHT22;5844;51.496;6.788;2023-07-29T06:33:26;19.10;1.00
11577;DHT22;5844;51.496;6.788;2023-07-29T06:35:52;19.00;1.00
11577;DHT22;5844;51.496;6.788;2023-07-29T06:38:17;19.00;1.00
11577;DHT22;5844;51.496;6.788;2023-07-29T06:40:49;19.10;1.00
11577;DHT22;5844;51.496;6.788;2023-07-29T06:43:15;19.00;1.00
11577;DHT22;5844;51.496;6.788;2023-07-29T06:45:41;19.00;1.00
11577;DHT22;5844;51.496;6.788;2023-07-29T06:48:08;19.20;1.00
11577;DHT22;5844;51.496;6.788;2023-07-29T06:50:34;19.30;1.00
11577;DHT22;5844;51.496;6.788;2023-07-29T06:52:59;19.40;1.00
11577;DHT22;5844;51.496;6.788;2023-07-29T06:55:25;19.40;1.00
11577;DHT22;5844;51.496;6.788;2023-07-29T06:57:51;19.50;1.00
11577;DHT22;5844;51.496;6.788;2023-07-29T07:00:16;19.60;1.00
11577;DHT22;5844;51.496;6.788;2023-07-29T07:02:42;19.70;1.00
11577;DHT22;5844;51.496;6.788;2023-07-29T07:05:08;19.60;1.00
11577;DHT22;5844;51.496;6.788;2023-07-29T07:07:36;19.70;1.00
11577;DHT22;5844;51.496;6.788;2023-07-29T07:10:01;19.80;1.00
11577;DHT22;5844;51.496;6.788;2023-07-29T07:12:27;19.90;1.00
11577;DHT22;5844;51.496;6.788;2023-07-29T07:14:53;19.90;1.00
11577;DHT22;5844;51.496;6.788;2023-07-29T07:17:18;20.10;1.00
11577;DHT22;5844;51.496;6.788;2023-07-29T07:19:44;20.30;1.00
11577;DHT22;5844;51.496;6.788;2023-07-29T07:22:10;20.50;1.00
11577;DHT22;5844;51.496;6.788;2023-07-29T07:24:35;20.60;1.00
11577;DHT22;5844;51.496;6.788;2023-07-29T07:27:02;20.40;1.00
11577;DHT22;5844;51.496;6.788;2023-07-29T07:29:28;20.30;1.00
11577;DHT22;5844;51.496;6.788;2023-07-29T07:31:56;20.20;1.00
11577;DHT22;5844;51.496;6.788;2023-07-29T07:34:22;20.00;1.00
11577;DHT22;5844;51.496;6.788;2023-07-29T07:36:48;20.10;1.00
11577;DHT22;5844;51.496;6.788;2023-07-29T07:39:14;20.30;1.00
11577;DHT22;5844;51.496;6.788;2023-07-29T07:41:41;20.50;1.00
11577;DHT22;5844;51.496;6.788;2023-07-29T07:44:06;20.50;1.00
11577;DHT22;5844;51.496;6.788;2023-07-29T07:46:32;20.40;1.00
11577;DHT22;5844;51.496;6.788;2023-07-29T07:48:58;20.30;1.00
11577;DHT22;5844;51.496;6.788;2023-07-29T07:51:23;20.40;1.00
11577;DHT22;5844;51.496;6.788;2023-07-29T07:53:49;20.30;1.00
11577;DHT22;5844;51.496;6.788;2023-07-29T07:56:14;20.30;1.00
11577;DHT22;5844;51.496;6.788;2023-07-29T07:58:40;20.40;1.00
11577;DHT22;5844;51.496;6.788;2023-07-29T08:01:07;20.50;1.00
11577;DHT22;5844;51.496;6.788;2023-07-29T08:03:34;20.60;1.00
11577;DHT22;5844;51.496;6.788;2023-07-29T08:05:59;20.60;1.00
11577;DHT22;5844;51.496;6.788;2023-07-29T08:08:26;20.70;1.00
11577;DHT22;5844;51.496;6.788;2023-07-29T08:10:53;20.80;1.00
11577;DHT22;5844;51.496;6.788;2023-07-29T08:13:20;20.80;1.00
11577;DHT22;5844;51.496;6.788;2023-07-29T08:15:47;21.00;1.00
11577;DHT22;5844;51.496;6.788;2023-07-29T08:18:13;21.10;1.00
11577;DHT22;5844;51.496;6.788;2023-07-29T08:20:39;21.10;1.00
11577;DHT22;5844;51.496;6.788;2023-07-29T08:23:04;21.40;1.00
11577;DHT22;5844;51.496;6.788;2023-07-29T08:25:30;21.40;1.00
11577;DHT22;5844;51.496;6.788;2023-07-29T08:27:55;21.50;1.00
11577;DHT22;5844;51.496;6.788;2023-07-29T08:30:21;21.70;1.00
11577;DHT22;5844;51.496;6.788;2023-07-29T08:32:47;21.90;1.00
11577;DHT22;5844;51.496;6.788;2023-07-29T08:35:13;21.80;1.00
11577;DHT22;5844;51.496;6.788;2023-07-29T08:37:38;21.60;1.00
11577;DHT22;5844;51.496;6.788;2023-07-29T08:40:05;21.50;1.00
11577;DHT22;5844;51.496;6.788;2023-07-29T08:42:40;21.70;1.00
11577;DHT22;5844;51.496;6.788;2023-07-29T08:45:07;21.90;1.00
11577;DHT22;5844;51.496;6.788;2023-07-29T08:47:34;22.20;1.00
11577;DHT22;5844;51.496;6.788;2023-07-29T08:50:01;22.20;1.00
11577;DHT22;5844;51.496;6.788;2023-07-29T08:52:29;22.30;1.00
11577;DHT22;5844;51.496;6.788;2023-07-29T08:54:57;22.40;1.00
11577;DHT22;5844;51.496;6.788;2023-07-29T08:57:24;22.60;1.00
11577;DHT22;5844;51.496;6.788;2023-07-29T08:59:51;22.70;1.00
11577;DHT22;5844;51.496;6.788;2023-07-29T09:02:17;23.00;1.00
11577;DHT22;5844;51.496;6.788;2023-07-29T09:04:43;22.80;1.00
11577;DHT22;5844;51.496;6.788;2023-07-29T09:07:09;22.50;1.00
11577;DHT22;5844;51.496;6.788;2023-07-29T09:09:36;22.20;1.00
11577;DHT22;5844;51.496;6.788;2023-07-29T09:12:02;22.20;1.00
11577;DHT22;5844;51.496;6.788;2023-07-29T09:14:28;22.30;1.00
11577;DHT22;5844;51.496;6.788;2023-07-29T09:16:54;22.60;1.00
11577;DHT22;5844;51.496;6.788;2023-07-29T09:19:20;22.60;1.00
11577;DHT22;5844;51.496;6.788;2023-07-29T09:21:46;22.60;1.00
11577;DHT22;5844;51.496;6.788;2023-07-29T09:24:15;22.50;1.00
11577;DHT22;5844;51.496;6.788;2023-07-29T09:26:49;22.30;1.00
11577;DHT22;5844;51.496;6.788;2023-07-29T09:29:15;22.10;1.00
11577;DHT22;5844;51.496;6.788;2023-07-29T09:31:41;22.00;1.00
11577;DHT22;5844;51.496;6.788;2023-07-29T09:34:06;21.90;1.00
11577;DHT22;5844;51.496;6.788;2023-07-29T09:36:33;21.60;1.00
11577;DHT22;5844;51.496;6.788;2023-07-29T09:38:59;21.50;1.00
11577;DHT22;5844;51.496;6.788;2023-07-29T09:41:29;21.50;1.00
11577;DHT22;5844;51.496;6.788;2023-07-29T09:44:01;21.60;1.00
11577;DHT22;5844;51.496;6.788;2023-07-29T09:46:35;21.90;1.00
11577;DHT22;5844;51.496;6.788;2023-07-29T09:49:05;22.30;1.00
11577;DHT22;5844;51.496;6.788;2023-07-29T09:51:31;22.50;1.00
11577;DHT22;5844;51.496;6.788;2023-07-29T09:54:02;22.60;1.00
11577;DHT22;5844;51.496;6.788;2023-07-29T09:56:28;23.00;1.00
11577;DHT22;5844;51.496;6.788;2023-07-29T09:58:56;23.20;1.00
11577;DHT22;5844;51.496;6.788;2023-07-29T10:01:22;23.20;1.00
11577;DHT22;5844;51.496;6.788;2023-07-29T10:03:48;23.90;1.00
11577;DHT22;5844;51.496;6.788;2023-07-29T10:06:14;24.80;1.00
11577;DHT22;5844;51.496;6.788;2023-07-29T10:08:42;25.60;1.00
11577;DHT22;5844;51.496;6.788;2023-07-29T10:11:18;26.30;1.00
11577;DHT22;5844;51.496;6.788;2023-07-29T10:13:46;26.40;1.00
11577;DHT22;5844;51.496;6.788;2023-07-29T10:16:13;26.60;1.00
11577;DHT22;5844;51.496;6.788;2023-07-29T10:18:40;26.30;1.00
11577;DHT22;5844;51.496;6.788;2023-07-29T10:21:07;26.00;1.00
11577;DHT22;5844;51.496;6.788;2023-07-29T10:23:38;26.20;1.00
11577;DHT22;5844;51.496;6.788;2023-07-29T10:26:10;26.50;1.00
11577;DHT22;5844;51.496;6.788;2023-07-29T10:28:40;27.00;1.00
11577;DHT22;5844;51.496;6.788;2023-07-29T10:31:06;27.50;1.00
11577;DHT22;5844;51.496;6.788;2023-07-29T10:33:34;27.40;1.00
11577;DHT22;5844;51.496;6.788;2023-07-29T10:36:00;27.70;1.00
11577;DHT22;5844;51.496;6.788;2023-07-29T10:38:26;28.10;1.00
11577;DHT22;5844;51.496;6.788;2023-07-29T10:40:54;28.50;1.00
11577;DHT22;5844;51.496;6.788;2023-07-29T10:43:38;28.50;1.00
11577;DHT22;5844;51.496;6.788;2023-07-29T10:46:24;27.60;1.00
11577;DHT22;5844;51.496;6.788;2023-07-29T10:51:37;26.10;1.00
11577;DHT22;5844;51.496;6.788;2023-07-29T10:54:11;26.80;1.00
11577;DHT22;5844;51.496;6.788;2023-07-29T10:56:40;27.50;1.00
11577;DHT22;5844;51.496;6.788;2023-07-29T11:01:41;26.80;1.00
11577;DHT22;5844;51.496;6.788;2023-07-29T11:07:19;26.20;1.00
11577;DHT22;5844;51.496;6.788;2023-07-29T11:12:46;25.60;1.00
11577;DHT22;5844;51.496;6.788;2023-07-29T11:15:15;25.20;1.00
11577;DHT22;5844;51.496;6.788;2023-07-29T11:17:43;24.80;1.00
11577;DHT22;5844;51.496;6.788;2023-07-29T11:20:10;24.50;1.00
11577;DHT22;5844;51.496;6.788;2023-07-29T11:22:37;24.60;1.00
11577;DHT22;5844;51.496;6.788;2023-07-29T11:25:04;24.70;1.00
11577;DHT22;5844;51.496;6.788;2023-07-29T11:27:30;24.70;1.00
11577;DHT22;5844;51.496;6.788;2023-07-29T11:30:00;24.30;1.00
11577;DHT22;5844;51.496;6.788;2023-07-29T11:32:26;24.20;1.00
11577;DHT22;5844;51.496;6.788;2023-07-29T11:34:52;24.00;1.00
11577;DHT22;5844;51.496;6.788;2023-07-29T11:37:17;24.20;1.00
11577;DHT22;5844;51.496;6.788;2023-07-29T11:39:46;24.30;1.00
11577;DHT22;5844;51.496;6.788;2023-07-29T11:42:13;24.30;1.00
11577;DHT22;5844;51.496;6.788;2023-07-29T11:44:39;24.70;1.00
11577;DHT22;5844;51.496;6.788;2023-07-29T11:47:09;25.40;1.00
11577;DHT22;5844;51.496;6.788;2023-07-29T11:49:37;26.30;1.00
11577;DHT22;5844;51.496;6.788;2023-07-29T11:52:04;27.60;1.00
11577;DHT22;5844;51.496;6.788;2023-07-29T11:54:31;28.60;1.00
11577;DHT22;5844;51.496;6.788;2023-07-29T11:56:57;28.60;1.00
11577;DHT22;5844;51.496;6.788;2023-07-29T11:59:23;29.20;1.00
11577;DHT22;5844;51.496;6.788;2023-07-29T12:01:49;29.30;1.00
11577;DHT22;5844;51.496;6.788;2023-07-29T12:04:15;28.90;1.00
11577;DHT22;5844;51.496;6.788;2023-07-29T12:06:41;27.50;1.00
11577;DHT22;5844;51.496;6.788;2023-07-29T12:09:07;27.10;1.00
11577;DHT22;5844;51.496;6.788;2023-07-29T12:11:34;27.20;1.00
11577;DHT22;5844;51.496;6.788;2023-07-29T12:14:00;27.30;1.00
11577;DHT22;5844;51.496;6.788;2023-07-29T12:16:26;26.50;1.00
11577;DHT22;5844;51.496;6.788;2023-07-29T12:18:52;25.60;1.00
11577;DHT22;5844;51.496;6.788;2023-07-29T12:21:20;25.60;1.00
11577;DHT22;5844;51.496;6.788;2023-07-29T12:23:46;25.40;1.00
11577;DHT22;5844;51.496;6.788;2023-07-29T12:26:12;25.40;1.00
11577;DHT22;5844;51.496;6.788;2023-07-29T12:28:37;25.70;1.00
11577;DHT22;5844;51.496;6.788;2023-07-29T12:31:07;26.30;1.00
11577;DHT22;5844;51.496;6.788;2023-07-29T12:33:37;26.60;1.00
11577;DHT22;5844;51.496;6.788;2023-07-29T12:36:07;26.20;1.00
11577;DHT22;5844;51.496;6.788;2023-07-29T12:38:33;25.80;1.00
11577;DHT22;5844;51.496;6.788;2023-07-29T12:40:58;25.70;1.00
11577;DHT22;5844;51.496;6.788;2023-07-29T12:43:25;25.50;1.00
11577;DHT22;5844;51.496;6.788;2023-07-29T12:45:51;25.80;1.00
11577;DHT22;5844;51.496;6.788;2023-07-29T12:48:19;25.90;1.00
11577;DHT22;5844;51.496;6.788;2023-07-29T12:50:45;26.10;1.00
11577;DHT22;5844;51.496;6.788;2023-07-29T12:53:11;26.40;1.00
11577;DHT22;5844;51.496;6.788;2023-07-29T12:55:37;27.30;1.00
11577;DHT22;5844;51.496;6.788;2023-07-29T12:58:03;28.20;1.00
11577;DHT22;5844;51.496;6.788;2023-07-29T13:00:29;28.30;1.00
11577;DHT22;5844;51.496;6.788;2023-07-29T13:02:55;27.60;1.00
11577;DHT22;5844;51.496;6.788;2023-07-29T13:05:23;27.20;1.00
11577;DHT22;5844;51.496;6.788;2023-07-29T13:07:49;28.40;1.00
11577;DHT22;5844;51.496;6.788;2023-07-29T13:10:14;29.50;1.00
11577;DHT22;5844;51.496;6.788;2023-07-29T13:12:40;28.90;1.00
11577;DHT22;5844;51.496;6.788;2023-07-29T13:15:06;28.10;1.00
11577;DHT22;5844;51.496;6.788;2023-07-29T13:17:35;27.10;1.00
11577;DHT22;5844;51.496;6.788;2023-07-29T13:20:03;25.90;1.00
11577;DHT22;5844;51.496;6.788;2023-07-29T13:22:29;25.20;1.00
11577;DHT22;5844;51.496;6.788;2023-07-29T13:24:54;24.80;1.00
11577;DHT22;5844;51.496;6.788;2023-07-29T13:27:22;24.70;1.00
11577;DHT22;5844;51.496;6.788;2023-07-29T13:29:49;24.60;1.00
11577;DHT22;5844;51.496;6.788;2023-07-29T13:32:15;24.40;1.00
11577;DHT22;5844;51.496;6.788;2023-07-29T13:34:40;24.20;1.00
11577;DHT22;5844;51.496;6.788;2023-07-29T13:37:06;23.70;1.00
11577;DHT22;5844;51.496;6.788;2023-07-29T13:39:32;23.60;1.00
11577;DHT22;5844;51.496;6.788;2023-07-29T13:41:57;23.00;1.00
11577;DHT22;5844;51.496;6.788;2023-07-29T13:44:23;22.40;1.00
11577;DHT22;5844;51.496;6.788;2023-07-29T13:46:49;21.90;1.00
11577;DHT22;5844;51.496;6.788;2023-07-29T13:49:14;21.40;1.00
11577;DHT22;5844;51.496;6.788;2023-07-29T13:51:40;21.00;1.00
11577;DHT22;5844;51.496;6.788;2023-07-29T13:54:08;20.70;1.00
11577;DHT22;5844;51.496;6.788;2023-07-29T13:56:33;20.40;1.00
11577;DHT22;5844;51.496;6.788;2023-07-29T13:58:59;20.20;1.00
11577;DHT22;5844;51.496;6.788;2023-07-29T14:01:24;19.90;1.00
11577;DHT22;5844;51.496;6.788;2023-07-29T14:03:50;19.60;1.00
11577;DHT22;5844;51.496;6.788;2023-07-29T14:06:16;19.30;1.00
11577;DHT22;5844;51.496;6.788;2023-07-29T14:08:42;19.00;1.00
11577;DHT22;5844;51.496;6.788;2023-07-29T14:11:08;18.60;1.00
11577;DHT22;5844;51.496;6.788;2023-07-29T14:13:34;18.40;1.00
11577;DHT22;5844;51.496;6.788;2023-07-29T14:16:01;18.00;1.00
11577;DHT22;5844;51.496;6.788;2023-07-29T14:18:27;18.00;1.00
11577;DHT22;5844;51.496;6.788;2023-07-29T14:20:53;18.00;1.00
11577;DHT22;5844;51.496;6.788;2023-07-29T14:23:19;18.20;1.00
11577;DHT22;5844;51.496;6.788;2023-07-29T14:25:44;18.40;1.00
11577;DHT22;5844;51.496;6.788;2023-07-29T14:28:10;18.70;1.00
11577;DHT22;5844;51.496;6.788;2023-07-29T14:30:36;18.80;1.00
11577;DHT22;5844;51.496;6.788;2023-07-29T14:33:03;20.20;1.00
11577;DHT22;5844;51.496;6.788;2023-07-29T14:35:28;22.00;1.00
11577;DHT22;5844;51.496;6.788;2023-07-29T14:37:54;24.30;1.00
11577;DHT22;5844;51.496;6.788;2023-07-29T14:40:19;26.30;1.00
11577;DHT22;5844;51.496;6.788;2023-07-29T14:42:45;27.90;1.00
11577;DHT22;5844;51.496;6.788;2023-07-29T14:45:11;28.70;1.00
11577;DHT22;5844;51.496;6.788;2023-07-29T14:47:36;29.70;1.00
11577;DHT22;5844;51.496;6.788;2023-07-29T14:50:02;31.50;1.00
11577;DHT22;5844;51.496;6.788;2023-07-29T14:52:27;32.40;1.00
11577;DHT22;5844;51.496;6.788;2023-07-29T14:54:53;31.70;1.00
11577;DHT22;5844;51.496;6.788;2023-07-29T14:57:19;29.90;1.00
11577;DHT22;5844;51.496;6.788;2023-07-29T14:59:44;28.50;1.00
11577;DHT22;5844;51.496;6.788;2023-07-29T15:02:10;27.00;1.00
11577;DHT22;5844;51.496;6.788;2023-07-29T15:04:35;25.50;1.00
11577;DHT22;5844;51.496;6.788;2023-07-29T15:07:02;24.00;1.00
11577;DHT22;5844;51.496;6.788;2023-07-29T15:09:28;23.30;1.00
11577;DHT22;5844;51.496;6.788;2023-07-29T15:11:54;22.50;1.00
11577;DHT22;5844;51.496;6.788;2023-07-29T15:14:19;22.00;1.00
11577;DHT22;5844;51.496;6.788;2023-07-29T15:16:45;21.70;1.00
11577;DHT22;5844;51.496;6.788;2023-07-29T15:19:11;21.50;1.00
11577;DHT22;5844;51.496;6.788;2023-07-29T15:21:36;21.30;1.00
11577;DHT22;5844;51.496;6.788;2023-07-29T15:24:02;21.30;1.00
11577;DHT22;5844;51.496;6.788;2023-07-29T15:26:27;21.40;1.00
11577;DHT22;5844;51.496;6.788;2023-07-29T15:28:53;21.40;1.00
11577;DHT22;5844;51.496;6.788;2023-07-29T15:31:19;21.50;1.00
11577;DHT22;5844;51.496;6.788;2023-07-29T15:33:44;21.50;1.00
11577;DHT22;5844;51.496;6.788;2023-07-29T15:36:10;21.50;1.00
11577;DHT22;5844;51.496;6.788;2023-07-29T15:38:36;21.90;1.00
11577;DHT22;5844;51.496;6.788;2023-07-29T15:41:02;22.90;1.00
11577;DHT22;5844;51.496;6.788;2023-07-29T15:43:27;23.60;1.00
11577;DHT22;5844;51.496;6.788;2023-07-29T15:45:53;24.60;1.00
11577;DHT22;5844;51.496;6.788;2023-07-29T15:48:19;26.60;1.00
11577;DHT22;5844;51.496;6.788;2023-07-29T15:50:45;28.40;1.00
11577;DHT22;5844;51.496;6.788;2023-07-29T15:53:10;30.20;1.00
11577;DHT22;5844;51.496;6.788;2023-07-29T15:55:36;30.40;1.00
11577;DHT22;5844;51.496;6.788;2023-07-29T15:58:02;30.80;1.00
11577;DHT22;5844;51.496;6.788;2023-07-29T16:00:27;30.30;1.00
11577;DHT22;5844;51.496;6.788;2023-07-29T16:02:54;30.40;1.00
11577;DHT22;5844;51.496;6.788;2023-07-29T16:05:20;30.80;1.00
11577;DHT22;5844;51.496;6.788;2023-07-29T16:07:45;30.80;1.00
11577;DHT22;5844;51.496;6.788;2023-07-29T16:10:11;30.90;1.00